sensor_id;sensor_type;location;lat;lon;timestamp;pressure;altitude;pressure_sealevel;temperature;humidity
84932;BME280;75193;53.980;13.902;2024-03-08T00:01:09;102668.00;;;10.74;55.01
84932;BME280;75193;53.980;13.902;2024-03-08T00:03:35;102665.31;;;10.41;54.88
84932;BME280;75193;53.980;13.902;2024-03-08T00:06:00;102672.72;;;10.19;55.96
84932;BME280;75193;53.980;13.902;2024-03-08T00:08:27;102663.09;;;10.61;54.94
84932;BME280;75193;53.980;13.902;2024-03-08T00:10:53;102671.28;;;10.08;56.54
84932;BME280;75193;53.980;13.902;2024-03-08T00:13:18;102664.22;;;10.50;55.65
84932;BME280;75193;53.980;13.902;2024-03-08T00:15:43;102670.50;;;10.78;54.88
84932;BME280;75193;53.980;13.902;2024-03-08T00:18:09;102667.31;;;11.01;53.88
84932;BME280;75193;53.980;13.902;2024-03-08T00:20:36;102664.63;;;10.69;54.48
84932;BME280;75193;53.980;13.902;2024-03-08T00:23:02;102664.31;;;10.82;54.45
84932;BME280;75193;53.980;13.902;2024-03-08T00:25:27;102666.16;;;11.11;53.34
84932;BME280;75193;53.980;13.902;2024-03-08T00:27:53;102663.22;;;10.55;54.81
84932;BME280;75193;53.980;13.902;2024-03-08T00:30:22;102662.09;;;10.66;54.84
84932;BME280;75193;53.980;13.902;2024-03-08T00:32:48;102662.50;;;11.18;53.11
84932;BME280;75193;53.980;13.902;2024-03-08T00:35:14;102669.31;;;11.57;52.07
84932;BME280;75193;53.980;13.902;2024-03-08T00:37:40;102667.06;;;12.03;50.06
84932;BME280;75193;53.980;13.902;2024-03-08T00:40:08;102665.88;;;11.55;51.18
84932;BME280;75193;53.980;13.902;2024-03-08T00:42:34;102666.84;;;11.81;50.76
84932;BME280;75193;53.980;13.902;2024-03-08T00:45:00;102661.38;;;12.19;49.38
84932;BME280;75193;53.980;13.902;2024-03-08T00:47:26;102670.38;;;12.38;48.95
84932;BME280;75193;53.980;13.902;2024-03-08T00:49:52;102659.94;;;12.36;49.19
84932;BME280;75193;53.980;13.902;2024-03-08T00:52:18;102660.84;;;12.35;49.74
84932;BME280;75193;53.980;13.902;2024-03-08T00:54:44;102661.28;;;12.50;49.68
84932;BME280;75193;53.980;13.902;2024-03-08T00:57:10;102661.94;;;12.00;51.24
84932;BME280;75193;53.980;13.902;2024-03-08T00:59:38;102656.97;;;11.91;51.34
84932;BME280;75193;53.980;13.902;2024-03-08T01:02:03;102658.69;;;12.20;50.49
84932;BME280;75193;53.980;13.902;2024-03-08T01:04:29;102653.53;;;12.45;50.49
84932;BME280;75193;53.980;13.902;2024-03-08T01:06:58;102649.03;;;12.50;50.12
84932;BME280;75193;53.980;13.902;2024-03-08T01:09:24;102646.28;;;12.80;49.56
84932;BME280;75193;53.980;13.902;2024-03-08T01:11:50;102647.47;;;12.17;50.99
84932;BME280;75193;53.980;13.902;2024-03-08T01:14:16;102647.41;;;12.46;50.17
84932;BME280;75193;53.980;13.902;2024-03-08T01:16:41;102644.72;;;12.48;49.84
84932;BME280;75193;53.980;13.902;2024-03-08T01:19:07;102636.72;;;12.24;50.70
84932;BME280;75193;53.980;13.902;2024-03-08T01:21:32;102638.47;;;12.52;50.13
84932;BME280;75193;53.980;13.902;2024-03-08T01:23:58;102639.53;;;12.72;49.75
84932;BME280;75193;53.980;13.902;2024-03-08T01:26:23;102641.09;;;12.24;51.11
84932;BME280;75193;53.980;13.902;2024-03-08T01:28:49;102640.47;;;11.88;51.59
84932;BME280;75193;53.980;13.902;2024-03-08T01:31:15;102634.88;;;12.00;51.52
84932;BME280;75193;53.980;13.902;2024-03-08T01:33:41;102623.53;;;11.99;51.28
84932;BME280;75193;53.980;13.902;2024-03-08T01:36:07;102624.66;;;12.47;50.05
84932;BME280;75193;53.980;13.902;2024-03-08T01:38:33;102629.44;;;12.34;50.53
84932;BME280;75193;53.980;13.902;2024-03-08T01:40:59;102622.75;;;12.24;50.38
84932;BME280;75193;53.980;13.902;2024-03-08T01:43:28;102620.41;;;11.87;51.05
84932;BME280;75193;53.980;13.902;2024-03-08T01:45:58;102615.72;;;11.98;51.21
84932;BME280;75193;53.980;13.902;2024-03-08T01:48:29;102614.41;;;11.83;51.44
84932;BME280;75193;53.980;13.902;2024-03-08T01:50:56;102610.44;;;12.27;50.48
84932;BME280;75193;53.980;13.902;2024-03-08T01:53:24;102604.19;;;11.74;51.40
84932;BME280;75193;53.980;13.902;2024-03-08T01:55:52;102605.81;;;11.78;51.41
84932;BME280;75193;53.980;13.902;2024-03-08T01:58:19;102599.84;;;12.02;50.49
84932;BME280;75193;53.980;13.902;2024-03-08T02:00:48;102605.00;;;12.05;50.04
84932;BME280;75193;53.980;13.902;2024-03-08T02:03:17;102597.56;;;12.20;49.31
84932;BME280;75193;53.980;13.902;2024-03-08T02:05:42;102597.78;;;11.84;49.73
84932;BME280;75193;53.980;13.902;2024-03-08T02:08:08;102597.75;;;11.56;50.03
84932;BME280;75193;53.980;13.902;2024-03-08T02:10:39;102590.72;;;11.27;50.72
84932;BME280;75193;53.980;13.902;2024-03-08T02:13:04;102595.38;;;11.17;50.30
84932;BME280;75193;53.980;13.902;2024-03-08T02:15:52;102589.44;;;11.42;50.04
84932;BME280;75193;53.980;13.902;2024-03-08T02:18:19;102584.75;;;11.22;50.01
84932;BME280;75193;53.980;13.902;2024-03-08T02:20:52;102595.38;;;11.17;49.99
84932;BME280;75193;53.980;13.902;2024-03-08T02:23:21;102591.19;;;11.10;50.17
84932;BME280;75193;53.980;13.902;2024-03-08T02:25:47;102582.69;;;11.33;49.22
84932;BME280;75193;53.980;13.902;2024-03-08T02:28:13;102577.63;;;11.27;50.03
84932;BME280;75193;53.980;13.902;2024-03-08T02:30:40;102582.56;;;11.07;49.57
84932;BME280;75193;53.980;13.902;2024-03-08T02:33:06;102589.78;;;10.99;49.82
84932;BME280;75193;53.980;13.902;2024-03-08T02:35:32;102579.22;;;11.02;49.68
84932;BME280;75193;53.980;13.902;2024-03-08T02:37:57;102563.22;;;11.12;49.02
84932;BME280;75193;53.980;13.902;2024-03-08T02:40:23;102571.41;;;11.00;49.09
84932;BME280;75193;53.980;13.902;2024-03-08T02:42:49;102564.94;;;11.13;48.79
84932;BME280;75193;53.980;13.902;2024-03-08T02:45:14;102572.59;;;10.88;48.80
84932;BME280;75193;53.980;13.902;2024-03-08T02:47:39;102559.94;;;10.73;49.83
84932;BME280;75193;53.980;13.902;2024-03-08T02:50:05;102559.69;;;10.82;48.95
84932;BME280;75193;53.980;13.902;2024-03-08T02:52:33;102557.78;;;10.55;50.06
84932;BME280;75193;53.980;13.902;2024-03-08T02:54:59;102557.13;;;10.81;49.15
84932;BME280;75193;53.980;13.902;2024-03-08T02:57:25;102560.56;;;10.83;48.68
84932;BME280;75193;53.980;13.902;2024-03-08T02:59:50;102563.00;;;10.89;48.39
84932;BME280;75193;53.980;13.902;2024-03-08T03:02:16;102552.63;;;10.86;48.25
84932;BME280;75193;53.980;13.902;2024-03-08T03:04:42;102557.09;;;10.82;48.07
84932;BME280;75193;53.980;13.902;2024-03-08T03:07:08;102558.94;;;10.77;48.05
84932;BME280;75193;53.980;13.902;2024-03-08T03:09:33;102556.38;;;10.76;47.58
84932;BME280;75193;53.980;13.902;2024-03-08T03:11:59;102556.50;;;10.71;47.64
84932;BME280;75193;53.980;13.902;2024-03-08T03:14:24;102547.28;;;10.56;48.26
84932;BME280;75193;53.980;13.902;2024-03-08T03:16:52;102554.53;;;10.47;48.17
84932;BME280;75193;53.980;13.902;2024-03-08T03:19:18;102552.78;;;10.47;47.89
84932;BME280;75193;53.980;13.902;2024-03-08T03:21:43;102545.63;;;10.54;47.79
84932;BME280;75193;53.980;13.902;2024-03-08T03:24:09;102550.97;;;10.49;47.74
84932;BME280;75193;53.980;13.902;2024-03-08T03:26:38;102556.41;;;10.42;47.91
84932;BME280;75193;53.980;13.902;2024-03-08T03:29:07;102552.91;;;10.43;48.13
84932;BME280;75193;53.980;13.902;2024-03-08T03:31:34;102556.66;;;10.31;47.93
84932;BME280;75193;53.980;13.902;2024-03-08T03:34:01;102550.53;;;10.32;47.51
84932;BME280;75193;53.980;13.902;2024-03-08T03:36:32;102551.66;;;10.20;47.71
84932;BME280;75193;53.980;13.902;2024-03-08T03:38:58;102552.66;;;10.15;47.92
84932;BME280;75193;53.980;13.902;2024-03-08T03:41:36;102544.13;;;10.08;48.01
84932;BME280;75193;53.980;13.902;2024-03-08T03:44:02;102550.22;;;10.09;47.82
84932;BME280;75193;53.980;13.902;2024-03-08T03:46:27;102550.34;;;10.04;47.73
84932;BME280;75193;53.980;13.902;2024-03-08T03:48:56;102540.84;;;9.98;47.99
84932;BME280;75193;53.980;13.902;2024-03-08T03:51:21;102541.91;;;9.91;47.97
84932;BME280;75193;53.980;13.902;2024-03-08T03:53:47;102539.16;;;9.97;48.24
84932;BME280;75193;53.980;13.902;2024-03-08T03:56:13;102538.88;;;10.10;47.45
84932;BME280;75193;53.980;13.902;2024-03-08T03:58:38;102538.31;;;9.95;47.83
84932;BME280;75193;53.980;13.902;2024-03-08T04:01:05;102542.44;;;10.06;47.90
84932;BME280;75193;53.980;13.902;2024-03-08T04:03:31;102539.03;;;10.02;48.05
84932;BME280;75193;53.980;13.902;2024-03-08T04:05:56;102531.88;;;10.10;47.92
84932;BME280;75193;53.980;13.902;2024-03-08T04:08:22;102530.53;;;9.94;47.63
84932;BME280;75193;53.980;13.902;2024-03-08T04:10:50;102527.19;;;9.89;47.59
84932;BME280;75193;53.980;13.902;2024-03-08T04:13:16;102531.38;;;9.94;47.73
84932;BME280;75193;53.980;13.902;2024-03-08T04:15:42;102532.31;;;9.92;47.83
84932;BME280;75193;53.980;13.902;2024-03-08T04:18:09;102527.34;;;9.81;47.61
84932;BME280;75193;53.980;13.902;2024-03-08T04:20:35;102528.91;;;9.51;47.98
84932;BME280;75193;53.980;13.902;2024-03-08T04:23:01;102530.59;;;9.54;48.37
84932;BME280;75193;53.980;13.902;2024-03-08T04:25:26;102532.91;;;9.26;48.85
84932;BME280;75193;53.980;13.902;2024-03-08T04:27:52;102538.81;;;9.35;48.65
84932;BME280;75193;53.980;13.902;2024-03-08T04:30:18;102522.56;;;9.61;47.83
84932;BME280;75193;53.980;13.902;2024-03-08T04:32:43;102523.25;;;9.71;47.55
84932;BME280;75193;53.980;13.902;2024-03-08T04:35:09;102524.94;;;9.72;47.13
84932;BME280;75193;53.980;13.902;2024-03-08T04:37:34;102527.69;;;9.66;47.04
84932;BME280;75193;53.980;13.902;2024-03-08T04:40:00;102523.50;;;9.59;47.07
84932;BME280;75193;53.980;13.902;2024-03-08T04:42:29;102521.94;;;9.52;47.29
84932;BME280;75193;53.980;13.902;2024-03-08T04:44:55;102516.72;;;9.52;46.81
84932;BME280;75193;53.980;13.902;2024-03-08T04:47:21;102516.78;;;9.49;46.99
84932;BME280;75193;53.980;13.902;2024-03-08T04:49:46;102520.38;;;9.43;46.92
84932;BME280;75193;53.980;13.902;2024-03-08T04:52:12;102511.03;;;9.33;47.22
84932;BME280;75193;53.980;13.902;2024-03-08T04:54:37;102509.34;;;9.30;47.31
84932;BME280;75193;53.980;13.902;2024-03-08T04:57:03;102515.28;;;9.37;47.28
84932;BME280;75193;53.980;13.902;2024-03-08T04:59:30;102512.69;;;9.37;47.05
84932;BME280;75193;53.980;13.902;2024-03-08T05:01:55;102512.78;;;9.32;46.91
84932;BME280;75193;53.980;13.902;2024-03-08T05:04:21;102506.75;;;9.30;46.94
84932;BME280;75193;53.980;13.902;2024-03-08T05:06:47;102520.19;;;9.09;47.07
84932;BME280;75193;53.980;13.902;2024-03-08T05:09:13;102514.63;;;8.84;47.74
84932;BME280;75193;53.980;13.902;2024-03-08T05:11:43;102517.00;;;8.96;47.38
84932;BME280;75193;53.980;13.902;2024-03-08T05:14:09;102516.91;;;9.01;46.99
84932;BME280;75193;53.980;13.902;2024-03-08T05:16:35;102517.94;;;8.92;46.54
84932;BME280;75193;53.980;13.902;2024-03-08T05:19:01;102515.41;;;8.88;46.84
84932;BME280;75193;53.980;13.902;2024-03-08T05:21:27;102512.25;;;8.72;46.88
84932;BME280;75193;53.980;13.902;2024-03-08T05:23:54;102525.50;;;8.61;47.47
84932;BME280;75193;53.980;13.902;2024-03-08T05:26:20;102518.16;;;8.31;47.37
84932;BME280;75193;53.980;13.902;2024-03-08T05:28:48;102524.03;;;7.89;48.18
84932;BME280;75193;53.980;13.902;2024-03-08T05:31:20;102527.00;;;7.67;48.32
84932;BME280;75193;53.980;13.902;2024-03-08T05:33:48;102524.47;;;7.60;48.26
84932;BME280;75193;53.980;13.902;2024-03-08T05:36:14;102525.06;;;7.79;47.96
84932;BME280;75193;53.980;13.902;2024-03-08T05:38:42;102514.84;;;7.67;48.25
84932;BME280;75193;53.980;13.902;2024-03-08T05:41:09;102517.38;;;7.72;48.52
84932;BME280;75193;53.980;13.902;2024-03-08T05:43:35;102513.69;;;7.86;47.52
84932;BME280;75193;53.980;13.902;2024-03-08T05:46:00;102518.94;;;7.83;47.84
84932;BME280;75193;53.980;13.902;2024-03-08T05:48:26;102522.06;;;8.05;47.13
84932;BME280;75193;53.980;13.902;2024-03-08T05:50:51;102528.84;;;8.15;46.92
84932;BME280;75193;53.980;13.902;2024-03-08T05:53:16;102523.91;;;7.97;47.39
84932;BME280;75193;53.980;13.902;2024-03-08T05:55:42;102521.03;;;8.14;47.19
84932;BME280;75193;53.980;13.902;2024-03-08T05:58:07;102518.09;;;8.35;46.81
84932;BME280;75193;53.980;13.902;2024-03-08T06:00:34;102518.69;;;8.53;46.69
84932;BME280;75193;53.980;13.902;2024-03-08T06:03:01;102510.69;;;9.06;46.04
84932;BME280;75193;53.980;13.902;2024-03-08T06:05:27;102512.72;;;9.74;44.86
84932;BME280;75193;53.980;13.902;2024-03-08T06:07:53;102511.41;;;10.29;44.09
84932;BME280;75193;53.980;13.902;2024-03-08T06:10:19;102519.16;;;10.66;42.97
84932;BME280;75193;53.980;13.902;2024-03-08T06:12:44;102513.78;;;11.03;42.50
84932;BME280;75193;53.980;13.902;2024-03-08T06:15:10;102510.09;;;11.68;42.36
84932;BME280;75193;53.980;13.902;2024-03-08T06:17:42;102518.22;;;12.15;41.46
84932;BME280;75193;53.980;13.902;2024-03-08T06:20:08;102515.28;;;12.50;41.17
84932;BME280;75193;53.980;13.902;2024-03-08T06:22:39;102509.91;;;12.78;40.83
84932;BME280;75193;53.980;13.902;2024-03-08T06:25:07;102510.63;;;12.83;39.70
84932;BME280;75193;53.980;13.902;2024-03-08T06:27:32;102511.56;;;13.29;40.28
84932;BME280;75193;53.980;13.902;2024-03-08T06:29:59;102502.25;;;13.44;40.53
84932;BME280;75193;53.980;13.902;2024-03-08T06:32:25;102504.28;;;13.81;40.45
84932;BME280;75193;53.980;13.902;2024-03-08T06:34:50;102500.31;;;14.13;40.03
84932;BME280;75193;53.980;13.902;2024-03-08T06:37:16;102503.88;;;14.54;40.08
84932;BME280;75193;53.980;13.902;2024-03-08T06:39:49;102500.47;;;15.10;38.87
84932;BME280;75193;53.980;13.902;2024-03-08T06:42:16;102496.63;;;15.36;39.16
84932;BME280;75193;53.980;13.902;2024-03-08T06:44:42;102498.53;;;14.95;39.69
84932;BME280;75193;53.980;13.902;2024-03-08T06:47:14;102492.28;;;13.52;40.94
84932;BME280;75193;53.980;13.902;2024-03-08T06:49:43;102497.88;;;12.96;42.73
84932;BME280;75193;53.980;13.902;2024-03-08T06:52:10;102503.50;;;12.37;43.86
84932;BME280;75193;53.980;13.902;2024-03-08T06:54:36;102503.31;;;11.90;44.43
84932;BME280;75193;53.980;13.902;2024-03-08T06:57:02;102510.78;;;11.74;44.71
84932;BME280;75193;53.980;13.902;2024-03-08T06:59:28;102509.41;;;11.91;44.06
84932;BME280;75193;53.980;13.902;2024-03-08T07:01:54;102508.44;;;11.93;44.25
84932;BME280;75193;53.980;13.902;2024-03-08T07:04:19;102509.47;;;11.88;45.05
84932;BME280;75193;53.980;13.902;2024-03-08T07:06:50;102511.50;;;11.50;46.25
84932;BME280;75193;53.980;13.902;2024-03-08T07:09:15;102514.94;;;11.81;45.15
84932;BME280;75193;53.980;13.902;2024-03-08T07:11:44;102510.50;;;11.83;45.52
84932;BME280;75193;53.980;13.902;2024-03-08T07:14:09;102515.84;;;11.80;45.36
84932;BME280;75193;53.980;13.902;2024-03-08T07:16:34;102511.66;;;12.01;45.25
84932;BME280;75193;53.980;13.902;2024-03-08T07:19:05;102519.53;;;12.01;45.56
84932;BME280;75193;53.980;13.902;2024-03-08T07:21:30;102514.75;;;12.14;45.83
84932;BME280;75193;53.980;13.902;2024-03-08T07:23:56;102517.09;;;12.22;45.61
84932;BME280;75193;53.980;13.902;2024-03-08T07:26:24;102513.34;;;12.30;45.33
84932;BME280;75193;53.980;13.902;2024-03-08T07:28:50;102519.56;;;12.53;45.24
84932;BME280;75193;53.980;13.902;2024-03-08T07:31:16;102512.25;;;12.61;45.03
84932;BME280;75193;53.980;13.902;2024-03-08T07:33:50;102516.81;;;12.31;46.19
84932;BME280;75193;53.980;13.902;2024-03-08T07:36:16;102511.31;;;12.12;46.88
84932;BME280;75193;53.980;13.902;2024-03-08T07:38:41;102512.38;;;12.33;46.74
84932;BME280;75193;53.980;13.902;2024-03-08T07:41:06;102502.00;;;12.55;46.30
84932;BME280;75193;53.980;13.902;2024-03-08T07:43:32;102504.91;;;12.47;46.97
84932;BME280;75193;53.980;13.902;2024-03-08T07:46:00;102499.41;;;12.78;45.93
84932;BME280;75193;53.980;13.902;2024-03-08T07:48:25;102499.41;;;12.78;46.05
84932;BME280;75193;53.980;13.902;2024-03-08T07:50:52;102498.00;;;12.93;45.98
84932;BME280;75193;53.980;13.902;2024-03-08T07:53:17;102496.09;;;12.73;46.55
84932;BME280;75193;53.980;13.902;2024-03-08T07:55:43;102495.84;;;13.04;46.04
84932;BME280;75193;53.980;13.902;2024-03-08T07:58:10;102489.09;;;12.97;45.94
84932;BME280;75193;53.980;13.902;2024-03-08T08:00:36;102492.47;;;13.00;46.12
84932;BME280;75193;53.980;13.902;2024-03-08T08:03:02;102498.28;;;13.09;46.10
84932;BME280;75193;53.980;13.902;2024-03-08T08:05:28;102492.69;;;12.94;46.43
84932;BME280;75193;53.980;13.902;2024-03-08T08:07:54;102496.69;;;13.04;46.92
84932;BME280;75193;53.980;13.902;2024-03-08T08:10:19;102489.44;;;12.64;48.04
84932;BME280;75193;53.980;13.902;2024-03-08T08:12:51;102492.19;;;12.08;48.76
84932;BME280;75193;53.980;13.902;2024-03-08T08:15:19;102497.38;;;12.36;48.87
84932;BME280;75193;53.980;13.902;2024-03-08T08:17:45;102484.00;;;12.19;49.03
84932;BME280;75193;53.980;13.902;2024-03-08T08:20:12;102492.97;;;12.12;49.37
84932;BME280;75193;53.980;13.902;2024-03-08T08:22:41;102492.41;;;12.29;48.58
84932;BME280;75193;53.980;13.902;2024-03-08T08:25:08;102489.47;;;12.38;48.65
84932;BME280;75193;53.980;13.902;2024-03-08T08:27:34;102490.28;;;12.40;49.09
84932;BME280;75193;53.980;13.902;2024-03-08T08:30:02;102488.13;;;12.51;48.94
84932;BME280;75193;53.980;13.902;2024-03-08T08:32:28;102493.97;;;12.08;49.60
84932;BME280;75193;53.980;13.902;2024-03-08T08:34:53;102488.47;;;12.67;48.67
84932;BME280;75193;53.980;13.902;2024-03-08T08:37:18;102486.22;;;12.05;50.40
84932;BME280;75193;53.980;13.902;2024-03-08T08:39:44;102487.81;;;11.82;50.68
84932;BME280;75193;53.980;13.902;2024-03-08T08:42:09;102479.38;;;12.01;50.44
84932;BME280;75193;53.980;13.902;2024-03-08T08:44:35;102479.59;;;11.95;50.22
84932;BME280;75193;53.980;13.902;2024-03-08T08:47:01;102477.44;;;12.06;50.15
84932;BME280;75193;53.980;13.902;2024-03-08T08:49:28;102473.97;;;12.80;48.23
84932;BME280;75193;53.980;13.902;2024-03-08T08:51:54;102479.78;;;12.40;49.24
84932;BME280;75193;53.980;13.902;2024-03-08T08:54:19;102486.31;;;12.53;49.20
84932;BME280;75193;53.980;13.902;2024-03-08T08:56:45;102473.63;;;13.13;47.82
84932;BME280;75193;53.980;13.902;2024-03-08T08:59:12;102470.66;;;12.75;48.42
84932;BME280;75193;53.980;13.902;2024-03-08T09:01:40;102470.94;;;12.67;49.39
84932;BME280;75193;53.980;13.902;2024-03-08T09:04:05;102463.94;;;12.91;48.54
84932;BME280;75193;53.980;13.902;2024-03-08T09:06:31;102452.41;;;12.95;48.97
84932;BME280;75193;53.980;13.902;2024-03-08T09:08:57;102456.75;;;12.73;49.76
84932;BME280;75193;53.980;13.902;2024-03-08T09:11:23;102452.69;;;12.39;50.33
84932;BME280;75193;53.980;13.902;2024-03-08T09:13:50;102456.44;;;11.81;51.91
84932;BME280;75193;53.980;13.902;2024-03-08T09:16:15;102448.31;;;12.88;49.64
84932;BME280;75193;53.980;13.902;2024-03-08T09:18:41;102447.28;;;12.44;50.22
84932;BME280;75193;53.980;13.902;2024-03-08T09:21:07;102446.66;;;12.86;49.67
84932;BME280;75193;53.980;13.902;2024-03-08T09:23:35;102441.28;;;13.12;49.36
84932;BME280;75193;53.980;13.902;2024-03-08T09:26:01;102437.38;;;13.24;48.72
84932;BME280;75193;53.980;13.902;2024-03-08T09:28:28;102436.06;;;13.34;48.17
84932;BME280;75193;53.980;13.902;2024-03-08T09:30:54;102440.94;;;12.74;50.01
84932;BME280;75193;53.980;13.902;2024-03-08T09:33:20;102431.69;;;13.34;48.71
84932;BME280;75193;53.980;13.902;2024-03-08T09:35:46;102427.66;;;13.26;48.97
84932;BME280;75193;53.980;13.902;2024-03-08T09:38:16;102427.25;;;13.13;48.72
84932;BME280;75193;53.980;13.902;2024-03-08T09:40:42;102425.09;;;13.46;48.21
84932;BME280;75193;53.980;13.902;2024-03-08T09:43:07;102431.00;;;12.83;49.30
84932;BME280;75193;53.980;13.902;2024-03-08T09:45:35;102421.44;;;13.50;48.48
84932;BME280;75193;53.980;13.902;2024-03-08T09:48:01;102420.28;;;13.12;48.81
84932;BME280;75193;53.980;13.902;2024-03-08T09:50:27;102418.31;;;13.62;48.32
84932;BME280;75193;53.980;13.902;2024-03-08T09:52:55;102423.47;;;13.44;48.30
84932;BME280;75193;53.980;13.902;2024-03-08T09:55:22;102417.03;;;13.29;48.95
84932;BME280;75193;53.980;13.902;2024-03-08T09:57:48;102413.56;;;13.28;49.22
84932;BME280;75193;53.980;13.902;2024-03-08T10:00:34;102406.38;;;13.54;48.02
84932;BME280;75193;53.980;13.902;2024-03-08T10:03:02;102402.31;;;13.89;47.64
84932;BME280;75193;53.980;13.902;2024-03-08T10:05:29;102403.38;;;13.21;48.88
84932;BME280;75193;53.980;13.902;2024-03-08T10:07:55;102404.09;;;13.46;49.29
84932;BME280;75193;53.980;13.902;2024-03-08T10:10:21;102404.47;;;13.59;49.08
84932;BME280;75193;53.980;13.902;2024-03-08T10:12:47;102398.81;;;14.29;46.32
84932;BME280;75193;53.980;13.902;2024-03-08T10:15:15;102391.66;;;13.72;47.75
84932;BME280;75193;53.980;13.902;2024-03-08T10:17:42;102395.78;;;14.38;47.36
84932;BME280;75193;53.980;13.902;2024-03-08T10:20:18;102394.84;;;14.00;48.13
84932;BME280;75193;53.980;13.902;2024-03-08T10:22:44;102404.13;;;13.67;47.34
84932;BME280;75193;53.980;13.902;2024-03-08T10:25:13;102396.38;;;14.24;46.32
84932;BME280;75193;53.980;13.902;2024-03-08T10:27:39;102391.06;;;13.85;47.57
84932;BME280;75193;53.980;13.902;2024-03-08T10:30:15;102388.06;;;14.15;46.87
84932;BME280;75193;53.980;13.902;2024-03-08T10:32:41;102388.97;;;13.93;46.02
84932;BME280;75193;53.980;13.902;2024-03-08T10:35:10;102382.28;;;13.86;46.46
84932;BME280;75193;53.980;13.902;2024-03-08T10:37:48;102387.16;;;13.96;46.64
84932;BME280;75193;53.980;13.902;2024-03-08T10:40:18;102384.38;;;13.58;45.54
84932;BME280;75193;53.980;13.902;2024-03-08T10:47:41;102382.94;;;13.49;45.02
84932;BME280;75193;53.980;13.902;2024-03-08T10:50:19;102377.22;;;14.02;44.36
84932;BME280;75193;53.980;13.902;2024-03-08T10:52:50;102375.19;;;13.88;43.16
84932;BME280;75193;53.980;13.902;2024-03-08T10:55:17;102381.38;;;13.45;44.79
84932;BME280;75193;53.980;13.902;2024-03-08T10:57:44;102392.56;;;13.28;44.61
84932;BME280;75193;53.980;13.902;2024-03-08T11:00:11;102372.22;;;13.96;44.71
84932;BME280;75193;53.980;13.902;2024-03-08T11:02:37;102367.63;;;14.01;44.08
84932;BME280;75193;53.980;13.902;2024-03-08T11:05:03;102373.47;;;13.87;44.58
84932;BME280;75193;53.980;13.902;2024-03-08T11:07:33;102373.53;;;14.06;43.85
84932;BME280;75193;53.980;13.902;2024-03-08T11:10:02;102369.00;;;13.69;45.62
84932;BME280;75193;53.980;13.902;2024-03-08T11:12:36;102373.44;;;13.47;46.87
84932;BME280;75193;53.980;13.902;2024-03-08T11:15:10;102363.38;;;13.78;47.19
84932;BME280;75193;53.980;13.902;2024-03-08T11:20:13;102350.00;;;13.62;46.58
84932;BME280;75193;53.980;13.902;2024-03-08T11:22:48;102351.06;;;13.58;45.11
84932;BME280;75193;53.980;13.902;2024-03-08T11:25:37;102357.56;;;13.70;45.03
84932;BME280;75193;53.980;13.902;2024-03-08T11:28:20;102340.34;;;13.83;44.50
84932;BME280;75193;53.980;13.902;2024-03-08T11:33:34;102340.75;;;13.94;43.80
84932;BME280;75193;53.980;13.902;2024-03-08T11:36:07;102339.09;;;13.51;43.88
84932;BME280;75193;53.980;13.902;2024-03-08T11:38:44;102337.94;;;13.99;43.54
84932;BME280;75193;53.980;13.902;2024-03-08T11:41:20;102326.50;;;14.00;44.06
84932;BME280;75193;53.980;13.902;2024-03-08T11:43:46;102340.63;;;13.13;44.03
84932;BME280;75193;53.980;13.902;2024-03-08T11:46:12;102325.09;;;13.71;43.71
84932;BME280;75193;53.980;13.902;2024-03-08T11:48:39;102321.25;;;13.80;43.93
84932;BME280;75193;53.980;13.902;2024-03-08T11:51:08;102321.75;;;13.68;43.30
84932;BME280;75193;53.980;13.902;2024-03-08T11:53:33;102319.78;;;13.52;43.53
84932;BME280;75193;53.980;13.902;2024-03-08T11:56:08;102319.84;;;13.71;43.06
84932;BME280;75193;53.980;13.902;2024-03-08T11:58:34;102310.88;;;13.77;42.98
84932;BME280;75193;53.980;13.902;2024-03-08T12:01:06;102317.16;;;13.52;43.34
84932;BME280;75193;53.980;13.902;2024-03-08T12:03:32;102312.03;;;14.29;41.49
84932;BME280;75193;53.980;13.902;2024-03-08T12:06:01;102311.13;;;13.50;42.28
84932;BME280;75193;53.980;13.902;2024-03-08T12:08:30;102310.03;;;13.34;42.52
84932;BME280;75193;53.980;13.902;2024-03-08T12:10:56;102314.88;;;13.65;42.07
84932;BME280;75193;53.980;13.902;2024-03-08T12:13:32;102292.09;;;14.05;41.80
84932;BME280;75193;53.980;13.902;2024-03-08T12:16:00;102295.25;;;13.92;41.83
84932;BME280;75193;53.980;13.902;2024-03-08T12:18:26;102295.56;;;13.66;41.36
84932;BME280;75193;53.980;13.902;2024-03-08T12:21:13;102286.66;;;13.89;40.12
84932;BME280;75193;53.980;13.902;2024-03-08T12:23:42;102285.25;;;14.40;40.00
84932;BME280;75193;53.980;13.902;2024-03-08T12:26:14;102269.25;;;14.82;39.41
84932;BME280;75193;53.980;13.902;2024-03-08T12:28:44;102279.53;;;14.30;39.13
84932;BME280;75193;53.980;13.902;2024-03-08T12:31:12;102282.22;;;14.10;39.14
84932;BME280;75193;53.980;13.902;2024-03-08T12:33:49;102266.75;;;14.04;39.32
84932;BME280;75193;53.980;13.902;2024-03-08T12:36:16;102273.56;;;13.48;39.86
84932;BME280;75193;53.980;13.902;2024-03-08T12:38:48;102254.06;;;13.33;40.43
84932;BME280;75193;53.980;13.902;2024-03-08T12:41:18;102264.88;;;12.82;40.92
84932;BME280;75193;53.980;13.902;2024-03-08T12:43:48;102264.94;;;13.85;39.00
84932;BME280;75193;53.980;13.902;2024-03-08T12:46:16;102260.00;;;13.98;38.51
84932;BME280;75193;53.980;13.902;2024-03-08T12:48:45;102257.50;;;13.75;39.62
84932;BME280;75193;53.980;13.902;2024-03-08T12:51:16;102260.38;;;13.89;39.15
84932;BME280;75193;53.980;13.902;2024-03-08T12:53:42;102253.53;;;14.05;38.17